1913 NOT_NAMED (1913257N17133)


IBTrACS version v04r00. Visit IBTrACS website for data access.
Please direct all questions to the IBTrACS Q and A forum

Storm track - Intensity - Wind Radii - Intensity Data - Source Data - All data

Summary Information

Storm ID 1913257N17133
Start Sep 13 22Z
Landfall Sep 19 09Z
End Sep 19 22Z
ATCF IDs
Track status Best track data.

Storm track plot

Map of storm track

Intensity plots

No Intensity information for this storm


Radial wind information

No radial wind information for this storm


Position and Intensity Table

BASIN ISO_TIME_________ NATURE LAT LON
degrees north degrees east
WP 1913-09-13 22:00:00 NR 17.40 132.70
WP 1913-09-14 00:00:00 NR 17.42 132.55
WP 03:00:00 NR 17.44 132.31
WP 06:00:00 NR 17.47 132.04
WP 09:00:00 NR 17.49 131.72
WP 10:00:00 NR 17.50 131.60
WP 12:00:00 NR 17.52 131.34
WP 15:00:00 NR 17.54 130.91
WP 18:00:00 NR 17.57 130.44
WP 21:00:00 NR 17.59 129.96
WP 22:00:00 NR 17.60 129.80
WP 1913-09-15 00:00:00 NR 17.61 129.50
WP 03:00:00 NR 17.63 129.06
WP 06:00:00 NR 17.66 128.61
WP 09:00:00 NR 17.69 128.15
WP 10:00:00 NR 17.70 128.00
WP 12:00:00 NR 17.72 127.69
WP 15:00:00 NR 17.76 127.23
WP 18:00:00 NR 17.81 126.75
WP 21:00:00 NR 17.88 126.27
WP 22:00:00 NR 17.90 126.10
WP 1913-09-16 00:00:00 NR 17.95 125.75
WP 03:00:00 NR 18.04 125.21
WP 06:00:00 NR 18.15 124.68
WP 09:00:00 NR 18.26 124.16
WP 10:00:00 NR 18.30 124.00
WP 12:00:00 NR 18.37 123.69
WP 15:00:00 NR 18.48 123.25
WP 18:00:00 NR 18.60 122.83
WP 21:00:00 NR 18.75 122.43
WP 22:00:00 NR 18.80 122.30
WP 1913-09-17 00:00:00 NR 18.92 122.03
WP 03:00:00 NR 19.12 121.65
WP 06:00:00 NR 19.33 121.27
WP 09:00:00 NR 19.54 120.92
WP 10:00:00 NR 19.60 120.80
WP 12:00:00 NR 19.71 120.58
WP 15:00:00 NR 19.85 120.25
WP 18:00:00 NR 19.99 119.94
WP 21:00:00 NR 20.15 119.61
WP 22:00:00 NR 20.20 119.50
WP 1913-09-18 00:00:00 NR 20.32 119.25
WP 03:00:00 NR 20.51 118.86
WP 06:00:00 NR 20.71 118.47
WP 09:00:00 NR 20.93 118.11
WP 10:00:00 NR 21.00 118.00
WP 12:00:00 NR 21.13 117.82
WP 15:00:00 NR 21.33 117.58
WP 18:00:00 NR 21.55 117.34
WP 21:00:00 NR 21.81 117.09
WP 22:00:00 NR 21.90 117.00
WP 1913-09-19 00:00:00 NR 22.11 116.78
WP 03:00:00 NR 22.46 116.43
WP 06:00:00 NR 22.82 116.04
WP 09:00:00 NR 23.18 115.64
WP 10:00:00 NR 23.30 115.50
WP 12:00:00 NR 23.52 115.22
WP 15:00:00 NR 23.83 114.80
WP 18:00:00 NR 24.13 114.37
WP 21:00:00 NR 24.41 113.94
WP 22:00:00 NR 24.50 113.80

Source Information

Agency Information
USA
TOKYO
CMA
HKO
NEWDELHI
REUNION
BOM
NADI
WELLINGTON
DS824
TD9636 cons_worldwide_trop_cyclone_18710101-19891231-003:Line=4713
TD9635
NEUMANN
MLC

All available IBTrACS Data

SEASON BASIN SUBBASIN ISO_TIME_________ NATURE LAT LON DIST2LAND LANDFALL IFLAG USA SSHS TD9636 LAT TD9636 LON TD9636 STAGE STORM SPEED STORM DIR
Year degrees north degrees east km km 1 degrees north degrees east kts degrees
1913 WP MM 1913-09-13 22:00:00 NR 17.40 132.70 968 951 __________O___ -1 17.40 132.70 3 4 276
1913 WP MM 1913-09-14 00:00:00 NR 17.42 132.55 951 932 __________P___ -1 17.42 132.55 3 5 276
1913 WP MM 03:00:00 NR 17.44 132.31 932 907 __________P___ -1 17.44 132.31 3 5 276
1913 WP MM 06:00:00 NR 17.47 132.04 907 879 __________P___ -1 17.47 132.04 3 6 275
1913 WP MM 09:00:00 NR 17.49 131.72 879 869 __________P___ -1 17.49 131.72 3 6 275
1913 WP MM 10:00:00 NR 17.50 131.60 869 841 __________O___ -1 17.50 131.60 4 7 274
1913 WP MM 12:00:00 NR 17.52 131.34 841 804 __________P___ -1 17.52 131.34 4 8 274
1913 WP MM 15:00:00 NR 17.54 130.91 804 764 __________P___ -1 17.54 130.91 4 9 273
1913 WP MM 18:00:00 NR 17.57 130.44 764 728 __________P___ -1 17.57 130.44 4 9 273
1913 WP MM 21:00:00 NR 17.59 129.96 728 711 __________P___ -1 17.59 129.96 4 9 273
1913 WP MM 22:00:00 NR 17.60 129.80 711 685 __________O___ -1 17.60 129.80 4 9 273
1913 WP MM 1913-09-15 00:00:00 NR 17.61 129.50 685 651 __________P___ -1 17.61 129.50 4 9 273
1913 WP MM 03:00:00 NR 17.63 129.06 651 618 __________P___ -1 17.63 129.06 4 9 273
1913 WP MM 06:00:00 NR 17.66 128.61 618 587 __________P___ -1 17.66 128.61 4 9 274
1913 WP MM 09:00:00 NR 17.69 128.15 587 572 __________P___ -1 17.69 128.15 4 9 274
1913 WP MM 10:00:00 NR 17.70 128.00 572 551 __________O___ -1 17.70 128.00 4 9 274
1913 WP MM 12:00:00 NR 17.72 127.69 551 506 __________P___ -1 17.72 127.69 4 9 275
1913 WP MM 15:00:00 NR 17.76 127.23 506 465 __________P___ -1 17.76 127.23 4 9 276
1913 WP MM 18:00:00 NR 17.81 126.75 465 415 __________P___ -1 17.81 126.75 4 9 277
1913 WP MM 21:00:00 NR 17.88 126.27 415 395 __________P___ -1 17.88 126.27 4 9 278
1913 WP MM 22:00:00 NR 17.90 126.10 395 364 __________O___ -1 17.90 126.10 4 10 279
1913 WP MM 1913-09-16 00:00:00 NR 17.95 125.75 367 306 __________P___ -1 17.95 125.75 4 10 280
1913 WP MM 03:00:00 NR 18.04 125.21 306 254 __________P___ -1 18.04 125.21 4 10 281
1913 WP MM 06:00:00 NR 18.15 124.68 254 200 __________P___ -1 18.15 124.68 4 10 282
1913 WP MM 09:00:00 NR 18.26 124.16 200 179 __________P___ -1 18.26 124.16 4 10 283
1913 WP MM 10:00:00 NR 18.30 124.00 179 147 __________O___ -1 18.30 124.00 4 9 283
1913 WP MM 12:00:00 NR 18.37 123.69 147 95 __________P___ -1 18.37 123.69 4 9 284
1913 WP MM 15:00:00 NR 18.48 123.25 95 57 __________P___ -1 18.48 123.25 4 8 286
1913 WP MM 18:00:00 NR 18.60 122.83 57 35 __________P___ -1 18.60 122.83 4 8 289
1913 WP MM 21:00:00 NR 18.75 122.43 35 44 __________P___ -1 18.75 122.43 4 8 291
1913 WP MM 22:00:00 NR 18.80 122.30 44 44 __________O___ -1 18.80 122.30 4 8 295
1913 WP MM 1913-09-17 00:00:00 NR 18.92 122.03 56 56 __________P___ -1 18.92 122.03 4 8 298
1913 WP MM 03:00:00 NR 19.12 121.65 70 70 __________P___ -1 19.12 121.65 4 8 300
1913 WP MM 06:00:00 NR 19.33 121.27 88 88 __________P___ -1 19.33 121.27 4 8 301
1913 WP MM 09:00:00 NR 19.54 120.92 100 100 __________P___ -1 19.54 120.92 4 8 301
1913 WP MM 10:00:00 NR 19.60 120.80 111 111 __________O___ -1 19.60 120.80 4 7 298
1913 WP MM 12:00:00 NR 19.71 120.58 124 124 __________P___ -1 19.71 120.58 4 7 296
1913 WP MM 15:00:00 NR 19.85 120.25 154 158 __________P___ -1 19.85 120.25 4 7 296
1913 WP MM 18:00:00 NR 19.99 119.94 182 182 __________P___ -1 19.99 119.94 4 7 296
1913 WP MM 21:00:00 NR 20.15 119.61 209 218 __________P___ -1 20.15 119.61 4 7 297
1913 WP MM 22:00:00 NR 20.20 119.50 224 224 __________O___ -1 20.20 119.50 4 8 297
1913 WP MM 1913-09-18 00:00:00 NR 20.32 119.25 237 228 __________P___ -1 20.32 119.25 4 8 297
1913 WP MM 03:00:00 NR 20.51 118.86 243 244 __________P___ -1 20.51 118.86 4 8 299
1913 WP MM 06:00:00 NR 20.71 118.47 264 264 __________P___ -1 20.71 118.47 4 8 301
1913 WP MM 09:00:00 NR 20.93 118.11 277 262 __________P___ -1 20.93 118.11 4 8 303
1913 WP MM 10:00:00 NR 21.00 118.00 262 241 __________O___ -1 21.00 118.00 4 7 307
1913 WP MM 12:00:00 NR 21.13 117.82 241 211 __________P___ -1 21.13 117.82 4 6 310
1913 WP MM 15:00:00 NR 21.33 117.58 211 167 __________P___ -1 21.33 117.58 4 6 314
1913 WP MM 18:00:00 NR 21.55 117.34 167 137 __________P___ -1 21.55 117.34 4 7 317
1913 WP MM 21:00:00 NR 21.81 117.09 137 123 __________P___ -1 21.81 117.09 4 7 317
1913 WP MM 22:00:00 NR 21.90 117.00 123 94 __________O___ -1 21.90 117.00 4 8 316
1913 WP MM 1913-09-19 00:00:00 NR 22.11 116.78 94 45 __________P___ -1 22.11 116.78 4 9 316
1913 WP MM 03:00:00 NR 22.46 116.43 45 0 __________P___ -1 22.46 116.43 4 10 316
1913 WP MM 06:00:00 NR 22.82 116.04 10 0 __________P___ -1 22.82 116.04 4 10 315
1913 WP MM 09:00:00 NR 23.18 115.64 0 0 __________P___ -1 23.18 115.64 4 10 314
1913 WP MM 10:00:00 NR 23.30 115.50 0 0 __________O___ -1 23.30 115.50 4 10 312
1913 WP MM 12:00:00 NR 23.52 115.22 0 0 __________P___ -1 23.52 115.22 4 10 310
1913 WP MM 15:00:00 NR 23.83 114.80 0 0 __________P___ -1 23.83 114.80 4 10 308
1913 WP MM 18:00:00 NR 24.13 114.37 0 0 __________P___ -1 24.13 114.37 4 10 306
1913 WP MM 21:00:00 NR 24.41 113.94 0 0 __________P___ -1 24.41 113.94 4 10 306
1913 WP MM 22:00:00 NR 24.50 113.80 0 __________O___ -1 24.50 113.80 4 10 306